sensor_id;sensor_type;location;lat;lon;timestamp;pressure;altitude;pressure_sealevel;temperature;humidity
20971;BME280;10644;48.834;10.088;2023-03-23T00:01:07;96129.41;;;16.65;44.24
20971;BME280;10644;48.834;10.088;2023-03-23T00:03:36;96134.69;;;16.54;44.33
20971;BME280;10644;48.834;10.088;2023-03-23T00:06:01;96142.69;;;16.21;45.16
20971;BME280;10644;48.834;10.088;2023-03-23T00:08:30;96144.66;;;15.98;45.51
20971;BME280;10644;48.834;10.088;2023-03-23T00:10:56;96157.63;;;16.08;45.40
20971;BME280;10644;48.834;10.088;2023-03-23T00:13:26;96155.59;;;16.11;45.62
20971;BME280;10644;48.834;10.088;2023-03-23T00:15:52;96145.59;;;16.27;45.17
20971;BME280;10644;48.834;10.088;2023-03-23T00:18:21;96144.50;;;16.30;44.73
20971;BME280;10644;48.834;10.088;2023-03-23T00:20:56;96143.56;;;16.31;44.58
20971;BME280;10644;48.834;10.088;2023-03-23T00:23:24;96155.81;;;16.29;45.16
20971;BME280;10644;48.834;10.088;2023-03-23T00:25:55;96159.75;;;16.03;45.57
20971;BME280;10644;48.834;10.088;2023-03-23T00:28:25;96157.22;;;16.12;45.47
20971;BME280;10644;48.834;10.088;2023-03-23T00:30:58;96136.50;;;16.03;45.92
20971;BME280;10644;48.834;10.088;2023-03-23T00:33:26;96134.44;;;15.97;46.23
20971;BME280;10644;48.834;10.088;2023-03-23T00:35:52;96145.97;;;15.93;46.25
20971;BME280;10644;48.834;10.088;2023-03-23T00:38:19;96136.88;;;15.89;47.15
20971;BME280;10644;48.834;10.088;2023-03-23T00:40:45;96139.84;;;15.94;46.34
20971;BME280;10644;48.834;10.088;2023-03-23T00:43:13;96128.22;;;16.09;46.67
20971;BME280;10644;48.834;10.088;2023-03-23T00:45:38;96125.69;;;16.18;46.04
20971;BME280;10644;48.834;10.088;2023-03-23T00:48:04;96126.00;;;16.25;46.51
20971;BME280;10644;48.834;10.088;2023-03-23T00:50:31;96122.19;;;16.29;46.22
20971;BME280;10644;48.834;10.088;2023-03-23T00:52:56;96123.47;;;16.44;46.11
20971;BME280;10644;48.834;10.088;2023-03-23T00:55:25;96116.44;;;16.25;46.60
20971;BME280;10644;48.834;10.088;2023-03-23T00:57:51;96115.81;;;15.93;48.05
20971;BME280;10644;48.834;10.088;2023-03-23T01:00:17;96095.63;;;15.37;49.37
20971;BME280;10644;48.834;10.088;2023-03-23T01:02:44;96094.97;;;15.24;49.84
20971;BME280;10644;48.834;10.088;2023-03-23T01:05:10;96092.56;;;15.11;50.28
20971;BME280;10644;48.834;10.088;2023-03-23T01:07:36;96104.59;;;15.33;49.96
20971;BME280;10644;48.834;10.088;2023-03-23T01:10:01;96098.34;;;15.35;50.69
20971;BME280;10644;48.834;10.088;2023-03-23T01:12:27;96086.28;;;15.25;50.06
20971;BME280;10644;48.834;10.088;2023-03-23T01:14:53;96082.38;;;15.41;50.14
20971;BME280;10644;48.834;10.088;2023-03-23T01:17:18;96089.66;;;15.57;49.76
20971;BME280;10644;48.834;10.088;2023-03-23T01:19:46;96094.91;;;15.76;49.45
20971;BME280;10644;48.834;10.088;2023-03-23T01:22:12;96086.44;;;15.94;48.81
20971;BME280;10644;48.834;10.088;2023-03-23T01:24:38;96093.31;;;16.14;47.83
20971;BME280;10644;48.834;10.088;2023-03-23T01:27:03;96087.88;;;16.17;48.03
20971;BME280;10644;48.834;10.088;2023-03-23T01:29:33;96091.22;;;16.08;48.40
20971;BME280;10644;48.834;10.088;2023-03-23T01:31:58;96083.97;;;15.93;48.58
20971;BME280;10644;48.834;10.088;2023-03-23T01:34:26;96078.56;;;15.96;48.98
20971;BME280;10644;48.834;10.088;2023-03-23T01:36:54;96085.31;;;15.87;49.30
20971;BME280;10644;48.834;10.088;2023-03-23T01:39:20;96067.00;;;15.70;49.96
20971;BME280;10644;48.834;10.088;2023-03-23T01:41:45;96078.75;;;15.53;50.55
20971;BME280;10644;48.834;10.088;2023-03-23T01:46:43;96058.56;;;15.27;51.60
20971;BME280;10644;48.834;10.088;2023-03-23T01:49:13;96067.88;;;14.98;52.36
20971;BME280;10644;48.834;10.088;2023-03-23T01:51:52;96070.06;;;15.13;52.00
20971;BME280;10644;48.834;10.088;2023-03-23T01:54:20;96063.03;;;15.36;51.38
20971;BME280;10644;48.834;10.088;2023-03-23T01:56:59;96062.34;;;15.34;50.64
20971;BME280;10644;48.834;10.088;2023-03-23T01:59:27;96060.53;;;15.55;50.80
20971;BME280;10644;48.834;10.088;2023-03-23T02:01:54;96065.38;;;15.69;50.29
20971;BME280;10644;48.834;10.088;2023-03-23T02:04:23;96081.22;;;15.85;50.12
20971;BME280;10644;48.834;10.088;2023-03-23T02:06:50;96057.84;;;15.86;50.13
20971;BME280;10644;48.834;10.088;2023-03-23T02:09:16;96062.03;;;15.78;50.62
20971;BME280;10644;48.834;10.088;2023-03-23T02:11:43;96065.31;;;15.80;50.81
20971;BME280;10644;48.834;10.088;2023-03-23T02:14:09;96059.78;;;15.64;51.14
20971;BME280;10644;48.834;10.088;2023-03-23T02:35:12;96015.94;;;15.23;51.10
20971;BME280;10644;48.834;10.088;2023-03-23T02:37:55;96020.03;;;15.46;50.81
20971;BME280;10644;48.834;10.088;2023-03-23T02:40:27;96028.13;;;15.62;50.53
20971;BME280;10644;48.834;10.088;2023-03-23T02:42:56;96013.47;;;15.72;50.08
20971;BME280;10644;48.834;10.088;2023-03-23T02:45:23;96027.28;;;15.61;50.24
20971;BME280;10644;48.834;10.088;2023-03-23T02:47:53;96029.78;;;15.72;49.87
20971;BME280;10644;48.834;10.088;2023-03-23T02:50:22;96022.78;;;15.84;49.57
20971;BME280;10644;48.834;10.088;2023-03-23T02:52:50;96020.63;;;15.89;49.80
20971;BME280;10644;48.834;10.088;2023-03-23T02:55:18;96026.63;;;15.99;48.98
20971;BME280;10644;48.834;10.088;2023-03-23T02:57:45;96033.47;;;16.09;48.85
20971;BME280;10644;48.834;10.088;2023-03-23T03:00:15;96022.59;;;16.25;49.04
20971;BME280;10644;48.834;10.088;2023-03-23T03:02:44;96020.03;;;16.25;49.30
20971;BME280;10644;48.834;10.088;2023-03-23T03:05:23;96024.78;;;16.20;47.01
20971;BME280;10644;48.834;10.088;2023-03-23T03:11:01;96024.47;;;16.13;45.73
20971;BME280;10644;48.834;10.088;2023-03-23T03:13:51;96017.72;;;16.31;45.93
20971;BME280;10644;48.834;10.088;2023-03-23T03:21:36;95996.81;;;16.63;44.77
20971;BME280;10644;48.834;10.088;2023-03-23T03:24:03;95992.72;;;16.70;44.32
20971;BME280;10644;48.834;10.088;2023-03-23T03:26:32;95995.72;;;16.75;44.01
20971;BME280;10644;48.834;10.088;2023-03-23T03:29:00;95988.38;;;16.80;43.90
20971;BME280;10644;48.834;10.088;2023-03-23T03:31:32;95976.78;;;16.84;44.17
20971;BME280;10644;48.834;10.088;2023-03-23T03:34:01;95978.81;;;16.90;43.58
20971;BME280;10644;48.834;10.088;2023-03-23T03:36:29;95970.38;;;16.88;43.73
20971;BME280;10644;48.834;10.088;2023-03-23T03:39:02;95981.13;;;16.93;43.71
20971;BME280;10644;48.834;10.088;2023-03-23T03:41:33;95969.03;;;16.84;43.38
20971;BME280;10644;48.834;10.088;2023-03-23T03:43:58;95990.53;;;16.94;43.24
20971;BME280;10644;48.834;10.088;2023-03-23T03:46:24;95989.03;;;16.82;43.84
20971;BME280;10644;48.834;10.088;2023-03-23T03:48:52;95987.84;;;16.76;43.49
20971;BME280;10644;48.834;10.088;2023-03-23T03:51:20;95982.38;;;16.79;44.02
20971;BME280;10644;48.834;10.088;2023-03-23T03:53:45;95976.78;;;16.84;43.72
20971;BME280;10644;48.834;10.088;2023-03-23T03:56:11;95981.00;;;16.94;43.49
20971;BME280;10644;48.834;10.088;2023-03-23T03:58:38;95989.31;;;16.98;43.78
20971;BME280;10644;48.834;10.088;2023-03-23T04:01:04;95993.94;;;16.94;43.52
20971;BME280;10644;48.834;10.088;2023-03-23T04:03:49;95986.19;;;16.85;43.92
20971;BME280;10644;48.834;10.088;2023-03-23T04:06:16;95980.19;;;16.94;44.01
20971;BME280;10644;48.834;10.088;2023-03-23T04:08:42;95973.91;;;16.96;43.39
20971;BME280;10644;48.834;10.088;2023-03-23T04:11:10;95973.53;;;16.82;43.98
20971;BME280;10644;48.834;10.088;2023-03-23T04:13:37;95984.94;;;16.89;43.80
20971;BME280;10644;48.834;10.088;2023-03-23T04:16:03;95978.66;;;17.01;43.90
20971;BME280;10644;48.834;10.088;2023-03-23T04:18:29;95975.25;;;17.10;43.60
20971;BME280;10644;48.834;10.088;2023-03-23T04:21:00;95974.97;;;17.13;43.18
20971;BME280;10644;48.834;10.088;2023-03-23T04:23:27;95982.84;;;17.21;43.24
20971;BME280;10644;48.834;10.088;2023-03-23T04:25:53;95979.31;;;17.22;43.40
20971;BME280;10644;48.834;10.088;2023-03-23T04:28:24;95984.09;;;17.17;43.01
20971;BME280;10644;48.834;10.088;2023-03-23T04:30:51;95970.63;;;17.04;43.96
20971;BME280;10644;48.834;10.088;2023-03-23T04:33:24;95985.91;;;16.88;44.67
20971;BME280;10644;48.834;10.088;2023-03-23T04:35:54;95985.38;;;16.75;44.88
20971;BME280;10644;48.834;10.088;2023-03-23T04:38:22;95968.75;;;16.58;45.33
20971;BME280;10644;48.834;10.088;2023-03-23T04:40:51;95979.53;;;16.54;45.45
20971;BME280;10644;48.834;10.088;2023-03-23T04:43:20;95973.13;;;16.67;45.35
20971;BME280;10644;48.834;10.088;2023-03-23T04:45:52;95970.44;;;16.59;45.21
20971;BME280;10644;48.834;10.088;2023-03-23T04:48:17;95969.16;;;16.73;44.28
20971;BME280;10644;48.834;10.088;2023-03-23T04:50:44;95966.97;;;16.78;43.77
20971;BME280;10644;48.834;10.088;2023-03-23T04:53:12;95955.72;;;16.79;43.61
20971;BME280;10644;48.834;10.088;2023-03-23T04:55:38;95969.41;;;16.89;43.60
20971;BME280;10644;48.834;10.088;2023-03-23T04:58:04;95964.53;;;16.86;43.50
20971;BME280;10644;48.834;10.088;2023-03-23T05:00:31;95967.66;;;16.89;43.71
20971;BME280;10644;48.834;10.088;2023-03-23T05:02:57;95964.53;;;16.86;43.45
20971;BME280;10644;48.834;10.088;2023-03-23T05:05:24;95959.78;;;16.91;43.52
20971;BME280;10644;48.834;10.088;2023-03-23T05:07:50;95949.41;;;16.81;43.67
20971;BME280;10644;48.834;10.088;2023-03-23T05:10:17;95967.00;;;16.87;43.77
20971;BME280;10644;48.834;10.088;2023-03-23T05:12:43;95966.97;;;16.97;43.25
20971;BME280;10644;48.834;10.088;2023-03-23T05:15:10;95965.47;;;16.94;43.59
20971;BME280;10644;48.834;10.088;2023-03-23T05:17:35;95975.81;;;17.04;43.25
20971;BME280;10644;48.834;10.088;2023-03-23T05:20:02;95972.56;;;17.02;42.99
20971;BME280;10644;48.834;10.088;2023-03-23T05:22:34;95963.94;;;17.11;43.42
20971;BME280;10644;48.834;10.088;2023-03-23T05:25:01;95972.28;;;16.95;43.50
20971;BME280;10644;48.834;10.088;2023-03-23T05:27:30;95963.03;;;16.93;43.70
20971;BME280;10644;48.834;10.088;2023-03-23T05:29:58;95968.75;;;16.96;43.33
20971;BME280;10644;48.834;10.088;2023-03-23T05:32:29;95952.94;;;16.99;43.72
20971;BME280;10644;48.834;10.088;2023-03-23T05:34:56;95966.81;;;16.98;43.60
20971;BME280;10644;48.834;10.088;2023-03-23T05:37:25;95953.47;;;17.03;43.60
20971;BME280;10644;48.834;10.088;2023-03-23T05:39:52;95951.56;;;17.05;43.21
20971;BME280;10644;48.834;10.088;2023-03-23T05:42:20;95960.69;;;17.09;43.37
20971;BME280;10644;48.834;10.088;2023-03-23T05:44:45;95958.66;;;17.03;43.48
20971;BME280;10644;48.834;10.088;2023-03-23T05:47:11;95975.50;;;17.07;43.70
20971;BME280;10644;48.834;10.088;2023-03-23T05:49:37;95962.44;;;17.08;43.56
20971;BME280;10644;48.834;10.088;2023-03-23T05:52:03;95961.75;;;17.16;43.29
20971;BME280;10644;48.834;10.088;2023-03-23T05:54:29;95962.44;;;17.08;43.23
20971;BME280;10644;48.834;10.088;2023-03-23T05:56:54;95973.31;;;17.12;43.33
20971;BME280;10644;48.834;10.088;2023-03-23T05:59:19;95962.56;;;17.07;43.87
20971;BME280;10644;48.834;10.088;2023-03-23T06:01:47;95960.00;;;17.16;43.45
20971;BME280;10644;48.834;10.088;2023-03-23T06:04:12;95965.00;;;17.18;43.44
20971;BME280;10644;48.834;10.088;2023-03-23T06:06:38;95972.22;;;17.14;43.46
20971;BME280;10644;48.834;10.088;2023-03-23T06:09:04;95970.88;;;17.20;43.40
20971;BME280;10644;48.834;10.088;2023-03-23T06:11:29;95962.28;;;17.19;43.30
20971;BME280;10644;48.834;10.088;2023-03-23T06:13:59;95960.53;;;17.20;43.53
20971;BME280;10644;48.834;10.088;2023-03-23T06:16:26;95961.75;;;17.16;43.62
20971;BME280;10644;48.834;10.088;2023-03-23T06:18:51;95967.47;;;17.10;43.68
20971;BME280;10644;48.834;10.088;2023-03-23T06:21:16;95957.22;;;17.18;43.31
20971;BME280;10644;48.834;10.088;2023-03-23T06:23:44;95950.31;;;17.09;43.66
20971;BME280;10644;48.834;10.088;2023-03-23T06:26:12;95957.53;;;17.15;43.71
20971;BME280;10644;48.834;10.088;2023-03-23T06:28:39;95965.47;;;17.04;43.87
20971;BME280;10644;48.834;10.088;2023-03-23T06:31:05;95967.22;;;17.13;43.98
20971;BME280;10644;48.834;10.088;2023-03-23T06:33:35;95968.16;;;17.12;44.02
20971;BME280;10644;48.834;10.088;2023-03-23T06:36:02;95965.16;;;17.16;43.57
20971;BME280;10644;48.834;10.088;2023-03-23T06:38:27;95995.94;;;17.19;43.91
20971;BME280;10644;48.834;10.088;2023-03-23T06:40:54;95974.94;;;17.22;44.12
20971;BME280;10644;48.834;10.088;2023-03-23T06:43:20;95967.91;;;17.05;44.34
20971;BME280;10644;48.834;10.088;2023-03-23T06:45:45;95981.53;;;16.98;44.61
20971;BME280;10644;48.834;10.088;2023-03-23T06:48:12;95987.66;;;17.06;44.24
20971;BME280;10644;48.834;10.088;2023-03-23T06:50:37;95993.50;;;17.08;44.31
20971;BME280;10644;48.834;10.088;2023-03-23T06:53:03;95991.59;;;17.10;44.39
20971;BME280;10644;48.834;10.088;2023-03-23T06:55:28;95982.75;;;16.94;44.83
20971;BME280;10644;48.834;10.088;2023-03-23T06:57:54;96004.69;;;16.99;44.69
20971;BME280;10644;48.834;10.088;2023-03-23T07:00:19;95983.03;;;17.00;44.58
20971;BME280;10644;48.834;10.088;2023-03-23T07:02:45;95990.88;;;17.18;44.32
20971;BME280;10644;48.834;10.088;2023-03-23T07:05:11;95991.97;;;17.15;44.23
20971;BME280;10644;48.834;10.088;2023-03-23T07:07:37;95974.41;;;17.19;44.32
20971;BME280;10644;48.834;10.088;2023-03-23T07:10:08;95988.69;;;17.23;44.45
20971;BME280;10644;48.834;10.088;2023-03-23T07:12:35;95996.47;;;17.32;44.33
20971;BME280;10644;48.834;10.088;2023-03-23T07:15:03;95989.97;;;17.19;44.70
20971;BME280;10644;48.834;10.088;2023-03-23T07:17:29;96002.44;;;17.33;44.53
20971;BME280;10644;48.834;10.088;2023-03-23T07:19:54;95992.38;;;17.30;44.57
20971;BME280;10644;48.834;10.088;2023-03-23T07:22:19;95993.44;;;17.37;44.67
20971;BME280;10644;48.834;10.088;2023-03-23T07:24:47;96001.22;;;17.37;44.20
20971;BME280;10644;48.834;10.088;2023-03-23T07:27:12;95989.91;;;17.28;44.49
20971;BME280;10644;48.834;10.088;2023-03-23T07:29:39;96000.53;;;17.44;44.50
20971;BME280;10644;48.834;10.088;2023-03-23T07:32:06;96006.13;;;17.49;44.33
20971;BME280;10644;48.834;10.088;2023-03-23T07:34:32;95996.00;;;17.56;44.37
20971;BME280;10644;48.834;10.088;2023-03-23T07:36:58;96007.13;;;17.66;43.94
20971;BME280;10644;48.834;10.088;2023-03-23T07:39:26;96015.19;;;17.63;43.99
20971;BME280;10644;48.834;10.088;2023-03-23T07:41:51;96013.56;;;17.62;44.53
20971;BME280;10644;48.834;10.088;2023-03-23T07:44:17;96007.56;;;17.61;44.66
20971;BME280;10644;48.834;10.088;2023-03-23T07:46:45;96024.75;;;17.62;44.77
20971;BME280;10644;48.834;10.088;2023-03-23T07:49:11;96019.59;;;17.53;45.80
20971;BME280;10644;48.834;10.088;2023-03-23T07:51:37;96014.25;;;17.64;45.95
20971;BME280;10644;48.834;10.088;2023-03-23T07:54:05;96039.41;;;17.71;46.16
20971;BME280;10644;48.834;10.088;2023-03-23T07:56:33;96031.50;;;17.73;46.02
20971;BME280;10644;48.834;10.088;2023-03-23T07:58:59;96035.06;;;17.72;46.14
20971;BME280;10644;48.834;10.088;2023-03-23T08:01:26;96028.50;;;17.77;45.78
20971;BME280;10644;48.834;10.088;2023-03-23T08:03:51;96037.75;;;17.80;45.97
20971;BME280;10644;48.834;10.088;2023-03-23T08:06:17;96044.38;;;17.65;46.63
20971;BME280;10644;48.834;10.088;2023-03-23T08:08:42;96035.63;;;17.66;46.12
20971;BME280;10644;48.834;10.088;2023-03-23T08:11:08;96026.19;;;17.74;46.19
20971;BME280;10644;48.834;10.088;2023-03-23T08:13:33;96046.22;;;17.82;46.19
20971;BME280;10644;48.834;10.088;2023-03-23T08:16:02;96038.13;;;17.85;45.78
20971;BME280;10644;48.834;10.088;2023-03-23T08:18:29;96046.44;;;17.88;45.23
20971;BME280;10644;48.834;10.088;2023-03-23T08:20:55;96042.22;;;17.87;45.61
20971;BME280;10644;48.834;10.088;2023-03-23T08:23:23;96038.66;;;17.98;45.50
20971;BME280;10644;48.834;10.088;2023-03-23T08:25:49;96043.97;;;17.96;45.37
20971;BME280;10644;48.834;10.088;2023-03-23T08:28:14;96051.31;;;18.01;44.90
20971;BME280;10644;48.834;10.088;2023-03-23T08:30:40;96045.59;;;17.97;44.94
20971;BME280;10644;48.834;10.088;2023-03-23T08:33:06;96043.41;;;18.02;45.61
20971;BME280;10644;48.834;10.088;2023-03-23T08:35:32;96055.34;;;18.13;45.17
20971;BME280;10644;48.834;10.088;2023-03-23T08:38:07;96062.34;;;18.30;44.80
20971;BME280;10644;48.834;10.088;2023-03-23T08:40:32;96058.28;;;18.37;45.11
20971;BME280;10644;48.834;10.088;2023-03-23T08:42:58;96055.47;;;18.48;43.68
20971;BME280;10644;48.834;10.088;2023-03-23T08:45:25;96061.53;;;18.39;44.32
20971;BME280;10644;48.834;10.088;2023-03-23T08:47:52;96062.28;;;18.49;43.61
20971;BME280;10644;48.834;10.088;2023-03-23T08:50:23;96074.22;;;18.59;43.21
20971;BME280;10644;48.834;10.088;2023-03-23T08:52:49;96071.19;;;18.64;43.09
20971;BME280;10644;48.834;10.088;2023-03-23T08:55:17;96084.84;;;18.66;43.06
20971;BME280;10644;48.834;10.088;2023-03-23T08:57:43;96076.63;;;18.70;42.59
20971;BME280;10644;48.834;10.088;2023-03-23T09:00:12;96066.38;;;18.69;42.59
20971;BME280;10644;48.834;10.088;2023-03-23T09:02:47;96076.69;;;18.78;42.32
20971;BME280;10644;48.834;10.088;2023-03-23T09:05:18;96082.03;;;18.77;41.91
20971;BME280;10644;48.834;10.088;2023-03-23T09:07:46;96085.59;;;18.76;42.02
20971;BME280;10644;48.834;10.088;2023-03-23T09:10:13;96090.09;;;18.74;42.16
20971;BME280;10644;48.834;10.088;2023-03-23T09:12:40;96080.25;;;18.77;42.19
20971;BME280;10644;48.834;10.088;2023-03-23T09:15:07;96089.25;;;18.83;42.21
20971;BME280;10644;48.834;10.088;2023-03-23T09:17:47;96080.63;;;19.00;42.23
20971;BME280;10644;48.834;10.088;2023-03-23T09:20:16;96091.69;;;19.02;42.12
20971;BME280;10644;48.834;10.088;2023-03-23T09:22:45;96087.91;;;18.96;42.17
20971;BME280;10644;48.834;10.088;2023-03-23T09:25:14;96104.97;;;18.99;42.14
20971;BME280;10644;48.834;10.088;2023-03-23T09:27:41;96098.13;;;18.98;42.25
20971;BME280;10644;48.834;10.088;2023-03-23T09:30:11;96108.88;;;19.03;42.24
20971;BME280;10644;48.834;10.088;2023-03-23T09:32:38;96101.69;;;18.97;42.49
20971;BME280;10644;48.834;10.088;2023-03-23T09:35:06;96100.00;;;18.88;42.75
20971;BME280;10644;48.834;10.088;2023-03-23T09:37:37;96118.06;;;18.80;42.93
20971;BME280;10644;48.834;10.088;2023-03-23T09:40:05;96120.28;;;18.75;43.09
20971;BME280;10644;48.834;10.088;2023-03-23T09:50:32;96138.75;;;18.45;44.74
20971;BME280;10644;48.834;10.088;2023-03-23T09:55:38;96148.22;;;18.27;45.16
20971;BME280;10644;48.834;10.088;2023-03-23T10:00:45;96139.34;;;18.39;45.49
20971;BME280;10644;48.834;10.088;2023-03-23T10:03:22;96148.88;;;18.48;45.05
20971;BME280;10644;48.834;10.088;2023-03-23T10:05:54;96146.94;;;18.50;45.41
20971;BME280;10644;48.834;10.088;2023-03-23T10:08:29;96158.22;;;18.58;45.21
20971;BME280;10644;48.834;10.088;2023-03-23T10:11:03;96151.78;;;18.62;45.31
20971;BME280;10644;48.834;10.088;2023-03-23T10:16:09;96163.06;;;18.71;44.82
20971;BME280;10644;48.834;10.088;2023-03-23T10:18:47;96156.00;;;18.63;44.79
20971;BME280;10644;48.834;10.088;2023-03-23T10:21:17;96149.78;;;18.74;45.07
20971;BME280;10644;48.834;10.088;2023-03-23T10:26:51;96145.31;;;18.49;45.65
20971;BME280;10644;48.834;10.088;2023-03-23T10:29:24;96148.88;;;18.48;45.58
20971;BME280;10644;48.834;10.088;2023-03-23T10:32:13;96145.50;;;18.65;45.25
20971;BME280;10644;48.834;10.088;2023-03-23T10:34:52;96149.84;;;18.64;45.66
20971;BME280;10644;48.834;10.088;2023-03-23T10:37:29;96161.53;;;18.78;45.59
20971;BME280;10644;48.834;10.088;2023-03-23T10:39:58;96150.09;;;18.71;45.50
20971;BME280;10644;48.834;10.088;2023-03-23T10:42:26;96166.25;;;18.65;45.93
20971;BME280;10644;48.834;10.088;2023-03-23T10:44:53;96162.44;;;18.59;45.89
20971;BME280;10644;48.834;10.088;2023-03-23T10:47:20;96151.53;;;18.56;46.11
20971;BME280;10644;48.834;10.088;2023-03-23T10:49:51;96161.63;;;18.59;46.15
20971;BME280;10644;48.834;10.088;2023-03-23T10:52:30;96167.63;;;18.59;46.19
20971;BME280;10644;48.834;10.088;2023-03-23T10:55:04;96172.56;;;18.53;46.58
20971;BME280;10644;48.834;10.088;2023-03-23T10:57:32;96177.63;;;18.54;47.02
20971;BME280;10644;48.834;10.088;2023-03-23T11:02:57;96164.00;;;18.70;46.44
20971;BME280;10644;48.834;10.088;2023-03-23T11:05:36;96176.13;;;18.79;46.25
20971;BME280;10644;48.834;10.088;2023-03-23T11:08:02;96166.00;;;18.85;46.59
20971;BME280;10644;48.834;10.088;2023-03-23T11:10:37;96176.97;;;18.97;46.29
20971;BME280;10644;48.834;10.088;2023-03-23T11:13:03;96177.09;;;18.78;46.60
20971;BME280;10644;48.834;10.088;2023-03-23T11:15:35;96187.28;;;18.62;46.90
20971;BME280;10644;48.834;10.088;2023-03-23T11:18:05;96170.94;;;18.52;47.16
20971;BME280;10644;48.834;10.088;2023-03-23T11:20:38;96170.63;;;18.64;47.38
20971;BME280;10644;48.834;10.088;2023-03-23T11:23:24;96181.25;;;18.61;47.32
20971;BME280;10644;48.834;10.088;2023-03-23T11:26:14;96170.34;;;18.67;48.10
20971;BME280;10644;48.834;10.088;2023-03-23T11:28:47;96174.91;;;18.83;47.33
20971;BME280;10644;48.834;10.088;2023-03-23T11:31:16;96171.66;;;18.71;47.56
20971;BME280;10644;48.834;10.088;2023-03-23T11:34:32;96166.41;;;18.81;47.25
20971;BME280;10644;48.834;10.088;2023-03-23T11:39:58;96171.59;;;18.81;47.10
20971;BME280;10644;48.834;10.088;2023-03-23T11:42:27;96167.19;;;18.91;47.20
20971;BME280;10644;48.834;10.088;2023-03-23T11:47:57;96169.00;;;18.81;47.36
20971;BME280;10644;48.834;10.088;2023-03-23T11:50:26;96165.34;;;19.01;47.24
20971;BME280;10644;48.834;10.088;2023-03-23T11:53:02;96170.69;;;18.99;47.08
20971;BME280;10644;48.834;10.088;2023-03-23T11:58:18;96163.22;;;18.87;47.57
20971;BME280;10644;48.834;10.088;2023-03-23T12:01:05;96171.69;;;19.16;47.84
20971;BME280;10644;48.834;10.088;2023-03-23T12:06:32;96157.22;;;19.31;47.12
20971;BME280;10644;48.834;10.088;2023-03-23T12:09:12;96158.84;;;19.14;47.29
20971;BME280;10644;48.834;10.088;2023-03-23T12:14:54;96151.81;;;19.24;47.42
20971;BME280;10644;48.834;10.088;2023-03-23T12:28:01;96137.81;;;19.78;47.79
20971;BME280;10644;48.834;10.088;2023-03-23T12:30:33;96130.75;;;19.70;47.40
20971;BME280;10644;48.834;10.088;2023-03-23T12:38:26;96120.66;;;19.93;46.78
20971;BME280;10644;48.834;10.088;2023-03-23T12:41:16;96118.75;;;19.95;46.00
20971;BME280;10644;48.834;10.088;2023-03-23T12:49:41;96107.91;;;20.33;45.02
20971;BME280;10644;48.834;10.088;2023-03-23T12:52:30;96117.94;;;20.20;45.03
20971;BME280;10644;48.834;10.088;2023-03-23T12:55:02;96104.91;;;20.20;45.03
20971;BME280;10644;48.834;10.088;2023-03-23T13:00:14;96107.22;;;20.23;44.68
20971;BME280;10644;48.834;10.088;2023-03-23T13:03:01;96110.63;;;20.23;44.44
20971;BME280;10644;48.834;10.088;2023-03-23T13:05:47;96100.78;;;20.43;44.88
20971;BME280;10644;48.834;10.088;2023-03-23T13:08:23;96091.88;;;20.12;45.26
20971;BME280;10644;48.834;10.088;2023-03-23T13:10:54;96099.38;;;20.15;44.91
20971;BME280;10644;48.834;10.088;2023-03-23T13:21:43;96099.97;;;20.09;45.32
20971;BME280;10644;48.834;10.088;2023-03-23T13:24:15;96096.00;;;19.97;45.18
20971;BME280;10644;48.834;10.088;2023-03-23T13:26:43;96102.81;;;19.98;45.41
20971;BME280;10644;48.834;10.088;2023-03-23T13:29:15;96100.66;;;20.11;45.09
20971;BME280;10644;48.834;10.088;2023-03-23T13:31:44;96095.50;;;20.19;45.17
20971;BME280;10644;48.834;10.088;2023-03-23T13:36:42;96092.88;;;20.11;44.84
20971;BME280;10644;48.834;10.088;2023-03-23T13:39:24;96082.16;;;20.22;44.69
20971;BME280;10644;48.834;10.088;2023-03-23T13:52:53;96063.94;;;20.22;43.69
20971;BME280;10644;48.834;10.088;2023-03-23T14:10:49;96057.16;;;20.29;43.32
20971;BME280;10644;48.834;10.088;2023-03-23T14:13:23;96052.94;;;20.28;43.39
20971;BME280;10644;48.834;10.088;2023-03-23T14:16:01;96060.56;;;20.29;43.88
20971;BME280;10644;48.834;10.088;2023-03-23T14:18:35;96048.34;;;20.22;43.46
20971;BME280;10644;48.834;10.088;2023-03-23T14:21:01;96052.97;;;20.02;43.68
20971;BME280;10644;48.834;10.088;2023-03-23T14:23:32;96053.53;;;20.22;43.82
20971;BME280;10644;48.834;10.088;2023-03-23T14:26:10;96046.97;;;20.43;42.98
20971;BME280;10644;48.834;10.088;2023-03-23T14:28:39;96054.00;;;20.51;42.98
20971;BME280;10644;48.834;10.088;2023-03-23T14:31:10;96047.47;;;20.47;42.91
20971;BME280;10644;48.834;10.088;2023-03-23T14:33:39;96043.66;;;20.33;42.78
20971;BME280;10644;48.834;10.088;2023-03-23T14:36:06;96043.09;;;20.47;42.90
20971;BME280;10644;48.834;10.088;2023-03-23T14:38:35;96046.19;;;20.59;43.03
20971;BME280;10644;48.834;10.088;2023-03-23T14:41:03;96045.50;;;20.41;42.73
20971;BME280;10644;48.834;10.088;2023-03-23T14:43:30;96048.72;;;20.35;42.92
20971;BME280;10644;48.834;10.088;2023-03-23T14:46:00;96052.25;;;20.18;43.04
20971;BME280;10644;48.834;10.088;2023-03-23T14:48:27;96045.72;;;20.14;43.05
20971;BME280;10644;48.834;10.088;2023-03-23T14:50:59;96054.88;;;20.26;42.79
20971;BME280;10644;48.834;10.088;2023-03-23T14:53:32;96056.50;;;20.27;43.11
20971;BME280;10644;48.834;10.088;2023-03-23T14:56:13;96041.56;;;20.29;42.83
20971;BME280;10644;48.834;10.088;2023-03-23T14:58:51;96038.28;;;20.27;42.82
20971;BME280;10644;48.834;10.088;2023-03-23T15:01:26;96036.97;;;20.23;42.48
20971;BME280;10644;48.834;10.088;2023-03-23T15:04:07;96033.28;;;20.33;42.64
20971;BME280;10644;48.834;10.088;2023-03-23T15:06:35;96028.72;;;20.35;42.48
20971;BME280;10644;48.834;10.088;2023-03-23T15:09:05;96035.19;;;20.23;43.27